createdAt,value
2019-05-20T00:00:50.117Z,98.67
2019-05-20T00:03:17.159Z,100.00
2019-05-20T00:05:44.606Z,99.92
2019-05-20T00:08:12.356Z,100.00
2019-05-20T00:10:40.102Z,100.00
2019-05-20T00:13:07.927Z,100.00
2019-05-20T00:15:34.986Z,98.76
2019-05-20T00:18:02.451Z,97.89
2019-05-20T00:20:29.769Z,100.00
2019-05-20T00:22:57.660Z,100.00
2019-05-20T00:25:25.726Z,100.00
2019-05-20T00:27:53.351Z,100.00
2019-05-20T00:30:20.719Z,100.00
2019-05-20T00:32:48.696Z,100.00
2019-05-20T00:35:16.391Z,100.00
2019-05-20T00:37:43.795Z,100.00
2019-05-20T00:40:11.771Z,98.71
2019-05-20T00:42:38.980Z,99.64
2019-05-20T00:45:06.596Z,100.00
2019-05-20T00:47:34.138Z,100.00
2019-05-20T00:50:02.420Z,100.00
2019-05-20T00:52:30.692Z,99.98
2019-05-20T00:54:58.397Z,99.96
2019-05-20T00:57:26.152Z,99.47
2019-05-20T00:59:54.103Z,99.06
2019-05-20T01:02:21.460Z,98.66
2019-05-20T01:04:48.489Z,98.48
2019-05-20T01:07:15.890Z,98.92
2019-05-20T01:09:43.205Z,99.04
2019-05-20T01:12:10.616Z,99.61
2019-05-20T01:14:39.154Z,100.00
2019-05-20T01:17:06.578Z,100.00
2019-05-20T01:19:33.585Z,100.00
2019-05-20T01:22:01.258Z,100.00
2019-05-20T01:24:29.032Z,100.00
2019-05-20T01:26:56.072Z,100.00
2019-05-20T01:29:23.429Z,100.00
2019-05-20T01:31:51.092Z,100.00
2019-05-20T01:34:18.806Z,100.00
2019-05-20T01:36:47.074Z,100.00
2019-05-20T01:39:15.037Z,100.00
2019-05-20T01:41:43.563Z,100.00
2019-05-20T01:44:11.155Z,100.00
2019-05-20T01:46:39.680Z,100.00
2019-05-20T01:49:07.263Z,100.00
2019-05-20T01:51:34.994Z,100.00
2019-05-20T01:54:02.061Z,100.00
2019-05-20T01:56:29.449Z,100.00
2019-05-20T01:58:57.050Z,100.00
2019-05-20T02:01:25.181Z,100.00
2019-05-20T02:03:53.252Z,100.00
2019-05-20T02:06:21.014Z,100.00
2019-05-20T02:08:49.623Z,100.00
2019-05-20T02:11:18.224Z,100.00
2019-05-20T02:13:58.636Z,100.00
2019-05-20T02:16:26.114Z,100.00
2019-05-20T02:18:53.330Z,100.00
2019-05-20T02:21:21.857Z,100.00
2019-05-20T02:23:50.116Z,100.00
2019-05-20T02:26:17.238Z,100.00
2019-05-20T02:28:45.570Z,100.00
2019-05-20T02:31:12.991Z,100.00
2019-05-20T02:33:51.739Z,100.00
2019-05-20T02:36:11.001Z,100.00
2019-05-20T02:38:39.385Z,100.00
2019-05-20T02:41:06.439Z,100.00
2019-05-20T02:43:33.747Z,100.00
2019-05-20T02:46:00.753Z,100.00
2019-05-20T02:48:28.123Z,100.00
2019-05-20T02:50:56.263Z,100.00
2019-05-20T02:53:23.700Z,100.00
2019-05-20T02:55:51.134Z,100.00
2019-05-20T02:58:19.185Z,100.00
2019-05-20T03:00:47.241Z,100.00
2019-05-20T03:03:15.014Z,100.00
2019-05-20T03:05:43.117Z,100.00
2019-05-20T03:08:11.685Z,100.00
2019-05-20T03:10:39.457Z,100.00
2019-05-20T03:13:07.382Z,100.00
2019-05-20T03:15:34.799Z,100.00
2019-05-20T03:18:02.216Z,100.00
2019-05-20T03:20:30.192Z,100.00
2019-05-20T03:22:57.811Z,100.00
2019-05-20T03:25:25.495Z,100.00
2019-05-20T03:27:53.177Z,100.00
2019-05-20T03:30:20.339Z,100.00
2019-05-20T03:32:47.447Z,100.00
2019-05-20T03:35:17.093Z,100.00
2019-05-20T03:37:45.865Z,100.00
2019-05-20T03:40:13.432Z,100.00
2019-05-20T03:42:40.799Z,100.00
2019-05-20T03:45:09.079Z,100.00
2019-05-20T03:47:38.320Z,100.00
2019-05-20T03:50:06.679Z,100.00
2019-05-20T03:52:35.135Z,100.00
2019-05-20T03:55:02.312Z,100.00
2019-05-20T03:57:29.772Z,100.00
2019-05-20T03:59:57.155Z,100.00
2019-05-20T04:02:24.234Z,100.00
2019-05-20T04:05:01.919Z,100.00
2019-05-20T04:07:21.490Z,100.00
2019-05-20T04:09:49.583Z,100.00
2019-05-20T04:12:17.596Z,100.00
2019-05-20T04:14:45.437Z,100.00
2019-05-20T04:17:13.580Z,100.00
2019-05-20T04:19:41.269Z,100.00
2019-05-20T04:22:08.778Z,100.00
2019-05-20T04:24:35.870Z,100.00
2019-05-20T04:27:03.219Z,100.00
2019-05-20T04:29:31.349Z,100.00
2019-05-20T04:32:00.377Z,100.00
2019-05-20T04:34:28.045Z,100.00
2019-05-20T04:36:57.035Z,100.00
2019-05-20T04:39:25.244Z,100.00
2019-05-20T04:41:54.074Z,100.00
2019-05-20T04:44:22.133Z,100.00
2019-05-20T04:46:49.973Z,100.00
2019-05-20T04:49:17.472Z,100.00
2019-05-20T04:51:44.525Z,100.00
2019-05-20T04:54:12.213Z,100.00
2019-05-20T04:56:39.656Z,100.00
2019-05-20T04:59:07.008Z,100.00
2019-05-20T05:01:34.135Z,100.00
2019-05-20T05:04:02.194Z,100.00
2019-05-20T05:06:32.824Z,100.00
2019-05-20T05:09:01.307Z,100.00
2019-05-20T05:11:28.863Z,100.00
2019-05-20T05:13:56.506Z,100.00
2019-05-20T05:16:24.495Z,100.00
2019-05-20T05:18:52.099Z,100.00
2019-05-20T05:21:19.581Z,100.00
2019-05-20T05:23:58.886Z,100.00
2019-05-20T05:26:17.380Z,100.00
2019-05-20T05:28:45.465Z,100.00
2019-05-20T05:31:12.789Z,100.00
2019-05-20T05:33:41.003Z,100.00
2019-05-20T05:36:08.083Z,100.00
2019-05-20T05:38:35.961Z,100.00
2019-05-20T05:41:03.965Z,100.00
2019-05-20T05:43:32.477Z,100.00
2019-05-20T05:46:00.884Z,100.00
2019-05-20T05:48:28.287Z,100.00
2019-05-20T05:50:55.964Z,100.00
2019-05-20T05:53:23.293Z,100.00
2019-05-20T05:55:50.325Z,100.00
2019-05-20T05:58:17.800Z,100.00
2019-05-20T06:00:45.145Z,100.00
2019-05-20T06:03:12.230Z,100.00
2019-05-20T06:05:39.684Z,100.00
2019-05-20T06:08:09.645Z,100.00
2019-05-20T06:10:37.043Z,100.00
2019-05-20T06:13:05.185Z,100.00
2019-05-20T06:15:33.435Z,100.00
2019-05-20T06:18:01.554Z,100.00
2019-05-20T06:20:29.013Z,100.00
2019-05-20T06:22:57.130Z,100.00
2019-05-20T06:25:24.202Z,100.00
2019-05-20T06:27:52.259Z,100.00
2019-05-20T06:30:21.675Z,100.00
2019-05-20T06:32:49.468Z,100.00
2019-05-20T06:35:17.582Z,100.00
2019-05-20T06:37:50.422Z,100.00
2019-05-20T06:40:20.502Z,100.00
2019-05-20T06:42:48.135Z,100.00
2019-05-20T06:45:15.249Z,100.00
2019-05-20T06:47:42.660Z,100.00
2019-05-20T06:50:10.441Z,100.00
2019-05-20T06:52:37.957Z,100.00
2019-05-20T06:55:06.511Z,100.00
2019-05-20T06:57:33.998Z,100.00
2019-05-20T07:00:02.877Z,100.00
2019-05-20T07:02:30.009Z,100.00
2019-05-20T07:04:57.413Z,100.00
2019-05-20T07:07:24.920Z,100.00
2019-05-20T07:09:52.269Z,100.00
2019-05-20T07:12:20.175Z,100.00
2019-05-20T07:14:47.483Z,100.00
2019-05-20T07:17:14.561Z,100.00
2019-05-20T07:19:42.447Z,100.00
2019-05-20T07:22:10.740Z,100.00
2019-05-20T07:24:38.274Z,100.00
2019-05-20T07:27:05.953Z,100.00
2019-05-20T07:29:33.905Z,100.00
2019-05-20T07:32:01.735Z,100.00
2019-05-20T07:34:28.834Z,100.00
2019-05-20T07:37:03.747Z,100.00
2019-05-20T07:39:30.514Z,100.00
2019-05-20T07:41:57.978Z,100.00
2019-05-20T07:44:25.819Z,100.00
2019-05-20T07:46:52.936Z,100.00
2019-05-20T07:49:23.289Z,100.00
2019-05-20T07:51:52.243Z,100.00
2019-05-20T07:54:20.151Z,100.00
2019-05-20T07:56:49.577Z,100.00
2019-05-20T07:59:20.033Z,100.00
2019-05-20T08:01:47.384Z,100.00
2019-05-20T08:04:15.346Z,100.00
2019-05-20T08:06:43.395Z,100.00
2019-05-20T08:09:10.799Z,100.00
2019-05-20T08:11:38.026Z,100.00
2019-05-20T08:14:05.967Z,100.00
2019-05-20T08:16:33.608Z,100.00
2019-05-20T08:19:00.990Z,100.00
2019-05-20T08:21:28.852Z,100.00
2019-05-20T08:23:57.115Z,100.00
2019-05-20T08:26:24.907Z,100.00
2019-05-20T08:28:52.945Z,100.00
2019-05-20T08:31:20.378Z,100.00
2019-05-20T08:33:47.864Z,100.00
2019-05-20T08:36:15.375Z,100.00
2019-05-20T08:38:42.811Z,100.00
2019-05-20T08:41:10.973Z,100.00
2019-05-20T08:43:38.499Z,100.00
2019-05-20T08:46:05.767Z,100.00
2019-05-20T08:48:32.873Z,100.00
2019-05-20T08:51:00.300Z,100.00
2019-05-20T08:53:27.788Z,100.00
2019-05-20T08:55:55.612Z,100.00
2019-05-20T08:58:23.674Z,100.00
2019-05-20T09:00:51.431Z,100.00
2019-05-20T09:03:19.223Z,100.00
2019-05-20T09:05:46.963Z,100.00
2019-05-20T09:08:14.461Z,100.00
2019-05-20T09:10:42.769Z,100.00
2019-05-20T09:13:10.204Z,100.00
2019-05-20T09:15:37.412Z,100.00
2019-05-20T09:18:04.853Z,100.00
2019-05-20T09:20:32.316Z,100.00
2019-05-20T09:23:02.625Z,100.00
2019-05-20T09:25:30.193Z,100.00
2019-05-20T09:27:58.695Z,100.00
2019-05-20T09:30:26.036Z,100.00
2019-05-20T09:32:53.649Z,100.00
2019-05-20T09:35:21.227Z,100.00
2019-05-20T09:37:48.228Z,100.00
2019-05-20T09:40:29.416Z,100.00
2019-05-20T09:42:57.166Z,100.00
2019-05-20T09:45:24.486Z,100.00
2019-05-20T09:47:52.048Z,100.00
2019-05-20T09:50:19.106Z,100.00
2019-05-20T09:52:46.559Z,100.00
2019-05-20T09:55:13.699Z,100.00
2019-05-20T09:57:41.091Z,100.00
2019-05-20T10:00:10.092Z,100.00
2019-05-20T10:02:38.554Z,100.00
2019-05-20T10:05:07.291Z,100.00
2019-05-20T10:07:35.214Z,100.00
2019-05-20T10:10:05.211Z,100.00
2019-05-20T10:12:45.232Z,100.00
2019-05-20T10:15:03.886Z,100.00
2019-05-20T10:17:31.451Z,100.00
2019-05-20T10:19:59.565Z,100.00
2019-05-20T10:22:26.962Z,100.00
2019-05-20T10:24:54.308Z,100.00
2019-05-20T10:27:21.628Z,100.00
2019-05-20T10:29:49.786Z,100.00
2019-05-20T10:32:17.733Z,100.00
2019-05-20T10:34:44.921Z,100.00
2019-05-20T10:37:12.258Z,100.00
2019-05-20T10:39:41.071Z,100.00
2019-05-20T10:42:08.401Z,100.00
2019-05-20T10:44:35.893Z,100.00
2019-05-20T10:47:06.542Z,100.00
2019-05-20T10:49:34.292Z,100.00
2019-05-20T10:52:04.015Z,100.00
2019-05-20T10:54:31.107Z,100.00
2019-05-20T10:56:59.769Z,99.62
2019-05-20T10:59:27.699Z,99.81
2019-05-20T11:01:55.166Z,98.20
2019-05-20T11:04:22.544Z,98.26
2019-05-20T11:06:49.587Z,97.66
2019-05-20T11:09:17.434Z,97.82
2019-05-20T11:11:44.467Z,97.47
2019-05-20T11:14:12.353Z,97.75
2019-05-20T11:16:40.193Z,98.30
2019-05-20T11:19:07.680Z,97.20
2019-05-20T11:21:34.741Z,95.98
2019-05-20T11:24:01.806Z,95.45
2019-05-20T11:26:29.135Z,97.48
2019-05-20T11:28:56.926Z,95.98
2019-05-20T11:31:24.607Z,96.21
2019-05-20T11:33:52.530Z,97.41
2019-05-20T11:36:20.349Z,97.69
2019-05-20T11:38:48.149Z,94.43
2019-05-20T11:41:15.513Z,95.93
2019-05-20T11:43:42.889Z,95.45
2019-05-20T11:46:10.366Z,95.58
2019-05-20T11:48:37.418Z,95.27
2019-05-20T11:51:04.507Z,93.73
2019-05-20T11:53:32.252Z,94.97
2019-05-20T11:55:59.331Z,94.34
2019-05-20T11:58:26.399Z,95.40
2019-05-20T12:00:54.274Z,94.13
2019-05-20T12:03:21.831Z,95.28
2019-05-20T12:05:48.868Z,94.19
2019-05-20T12:08:16.572Z,94.29
2019-05-20T12:10:43.876Z,94.46
2019-05-20T12:13:11.758Z,93.47
2019-05-20T12:15:39.758Z,95.65
2019-05-20T12:18:06.891Z,95.36
2019-05-20T12:20:35.862Z,94.87
2019-05-20T12:23:02.933Z,93.93
2019-05-20T12:25:30.766Z,94.71
2019-05-20T12:27:58.649Z,95.08
2019-05-20T12:30:25.716Z,95.56
2019-05-20T12:33:15.591Z,94.23
2019-05-20T12:35:22.329Z,94.45
2019-05-20T12:37:49.693Z,94.15
2019-05-20T12:40:17.212Z,94.81
2019-05-20T12:42:44.867Z,94.09
2019-05-20T12:45:12.376Z,93.47
2019-05-20T12:47:39.831Z,94.17
2019-05-20T12:50:07.948Z,93.98
2019-05-20T12:52:35.209Z,93.37
2019-05-20T12:55:07.861Z,93.79
2019-05-20T12:57:31.906Z,94.02
2019-05-20T12:59:59.396Z,94.74
2019-05-20T13:02:27.471Z,94.79
2019-05-20T13:04:54.589Z,93.72
2019-05-20T13:07:22.092Z,94.37
2019-05-20T13:09:52.184Z,94.01
2019-05-20T13:12:19.715Z,95.15
2019-05-20T13:14:46.796Z,95.69
2019-05-20T13:17:14.298Z,94.21
2019-05-20T13:19:43.053Z,95.02
2019-05-20T13:22:10.929Z,94.75
2019-05-20T13:24:38.513Z,95.45
2019-05-20T13:27:06.632Z,94.00
2019-05-20T13:29:34.082Z,94.48
2019-05-20T13:32:01.122Z,93.33
2019-05-20T13:34:28.805Z,93.79
2019-05-20T13:36:56.970Z,92.93
2019-05-20T13:39:24.714Z,94.15
2019-05-20T13:41:52.485Z,93.83
2019-05-20T13:44:19.842Z,93.82
2019-05-20T13:46:47.480Z,93.55
2019-05-20T13:49:14.626Z,92.59
2019-05-20T13:51:42.141Z,93.50
2019-05-20T13:54:09.590Z,91.73
2019-05-20T13:56:37.087Z,92.10
2019-05-20T13:59:04.525Z,91.64
2019-05-20T14:01:31.874Z,92.00
2019-05-20T14:03:59.616Z,91.82
2019-05-20T14:06:26.659Z,91.40
2019-05-20T14:08:53.714Z,90.31
2019-05-20T14:11:33.891Z,89.97
2019-05-20T14:13:50.556Z,90.42
2019-05-20T14:16:18.426Z,88.92
2019-05-20T14:18:45.781Z,90.54
2019-05-20T14:21:13.508Z,89.79
2019-05-20T14:23:40.566Z,90.42
2019-05-20T14:26:07.601Z,89.61
2019-05-20T14:28:35.398Z,90.00
2019-05-20T14:31:05.930Z,90.28
2019-05-20T14:34:14.518Z,91.59
2019-05-20T14:36:54.300Z,91.42
2019-05-20T14:39:21.775Z,90.42
2019-05-20T14:41:49.417Z,91.09
2019-05-20T14:44:17.234Z,90.16
2019-05-20T14:46:45.042Z,90.86
2019-05-20T14:49:12.767Z,89.37
2019-05-20T14:51:41.005Z,89.37
2019-05-20T14:54:08.366Z,88.89
2019-05-20T14:56:36.396Z,89.16
2019-05-20T14:59:04.180Z,89.21
2019-05-20T15:01:32.051Z,88.53
2019-05-20T15:03:59.138Z,89.30
2019-05-20T15:06:26.918Z,88.67
2019-05-20T15:08:54.334Z,88.91
2019-05-20T15:11:35.637Z,89.68
2019-05-20T15:13:51.096Z,89.36
2019-05-20T15:16:18.492Z,89.65
2019-05-20T15:18:45.639Z,89.33
2019-05-20T15:21:13.124Z,89.53
2019-05-20T15:23:40.511Z,90.35
2019-05-20T15:26:07.520Z,90.09
2019-05-20T15:28:35.126Z,88.94
2019-05-20T15:31:02.778Z,90.20
2019-05-20T15:33:30.543Z,89.88
2019-05-20T15:35:57.883Z,89.26
2019-05-20T15:38:25.656Z,89.30
2019-05-20T15:40:53.220Z,89.85
2019-05-20T15:43:22.949Z,89.83
2019-05-20T15:45:50.792Z,89.42
2019-05-20T15:48:19.025Z,87.88
2019-05-20T15:50:46.479Z,87.81
2019-05-20T15:53:13.655Z,89.11
2019-05-20T15:55:41.038Z,88.51
2019-05-20T15:58:08.172Z,90.06
2019-05-20T16:00:35.543Z,91.14
2019-05-20T16:03:02.665Z,90.81
2019-05-20T16:05:30.727Z,90.42
2019-05-20T16:08:10.216Z,90.32
2019-05-20T16:11:10.132Z,90.17
2019-05-20T16:14:07.174Z,90.03
2019-05-20T16:17:04.425Z,89.53
2019-05-20T16:20:08.461Z,88.84
2019-05-20T16:23:08.593Z,87.24
2019-05-20T16:26:06.593Z,86.64
2019-05-20T16:28:35.125Z,86.04
2019-05-20T16:31:02.777Z,86.07
2019-05-20T16:33:31.369Z,86.34
2019-05-20T16:35:59.034Z,86.53
2019-05-20T16:38:39.413Z,86.55
2019-05-20T16:41:07.060Z,86.47
2019-05-20T16:43:42.959Z,86.29
2019-05-20T16:46:10.186Z,85.71
2019-05-20T16:48:38.336Z,86.50
2019-05-20T16:51:06.775Z,86.34
2019-05-20T16:53:38.607Z,85.40
2019-05-20T16:56:11.274Z,85.84
2019-05-20T16:58:39.875Z,85.65
2019-05-20T17:01:10.038Z,86.01
2019-05-20T17:03:40.782Z,86.72
2019-05-20T17:06:12.890Z,86.50
2019-05-20T17:08:43.138Z,86.97
2019-05-20T17:11:33.770Z,87.28
2019-05-20T17:14:30.007Z,87.56
2019-05-20T17:16:57.439Z,87.02
2019-05-20T17:19:30.437Z,87.64
2019-05-20T17:21:57.838Z,87.65
2019-05-20T17:24:24.839Z,87.72
2019-05-20T17:26:52.639Z,87.67
2019-05-20T17:29:20.522Z,87.34
2019-05-20T17:31:48.268Z,87.67
2019-05-20T17:34:15.942Z,87.54
2019-05-20T17:39:21.164Z,88.18
2019-05-20T17:41:49.427Z,87.85
2019-05-20T17:44:16.520Z,88.34
2019-05-20T17:46:43.909Z,88.38
2019-05-20T17:49:11.325Z,88.41
2019-05-20T17:51:38.681Z,88.38
2019-05-20T17:54:06.899Z,87.32
2019-05-20T17:56:34.404Z,88.28
2019-05-20T17:59:03.905Z,87.37
2019-05-20T18:01:31.239Z,88.36
2019-05-20T18:03:59.647Z,87.54
2019-05-20T18:06:27.410Z,88.48
2019-05-20T18:08:56.820Z,88.20
2019-05-20T18:11:24.236Z,88.65
2019-05-20T18:13:51.754Z,88.18
2019-05-20T18:16:19.628Z,89.44
2019-05-20T18:18:46.970Z,89.66
2019-05-20T18:21:14.918Z,89.22
2019-05-20T18:23:45.419Z,89.22
2019-05-20T18:26:13.486Z,89.47
2019-05-20T18:28:40.783Z,90.63
2019-05-20T18:31:07.825Z,90.79
2019-05-20T18:33:35.708Z,91.03
2019-05-20T18:36:03.509Z,90.71
2019-05-20T18:38:31.758Z,90.57
2019-05-20T18:40:59.761Z,91.10
2019-05-20T18:43:27.570Z,91.39
2019-05-20T18:45:55.436Z,91.66
2019-05-20T18:48:24.221Z,91.80
2019-05-20T18:50:51.977Z,91.68
2019-05-20T18:53:19.762Z,91.79
2019-05-20T18:55:47.436Z,92.12
2019-05-20T18:58:15.326Z,92.15
2019-05-20T19:00:42.850Z,92.20
2019-05-20T19:03:10.303Z,92.13
2019-05-20T19:05:38.281Z,92.12
2019-05-20T19:08:05.583Z,92.26
2019-05-20T19:10:33.301Z,92.65
2019-05-20T19:13:00.901Z,92.85
2019-05-20T19:15:28.714Z,92.27
2019-05-20T19:17:56.153Z,92.50
2019-05-20T19:20:23.341Z,92.82
2019-05-20T19:22:51.031Z,92.40
2019-05-20T19:25:19.163Z,92.38
2019-05-20T19:27:47.563Z,92.23
2019-05-20T19:30:15.707Z,92.78
2019-05-20T19:32:42.917Z,92.73
2019-05-20T19:35:10.512Z,91.91
2019-05-20T19:37:38.017Z,92.65
2019-05-20T19:40:06.872Z,92.14
2019-05-20T19:42:35.205Z,92.78
2019-05-20T19:45:02.356Z,93.43
2019-05-20T19:47:30.158Z,92.99
2019-05-20T19:49:57.782Z,93.09
2019-05-20T19:52:26.003Z,93.09
2019-05-20T19:54:53.640Z,92.42
2019-05-20T19:57:21.318Z,92.77
2019-05-20T19:59:49.319Z,93.03
2019-05-20T20:02:18.072Z,93.42
2019-05-20T20:04:45.568Z,93.09
2019-05-20T20:07:12.972Z,93.77
2019-05-20T20:09:40.023Z,93.71
2019-05-20T20:12:08.307Z,94.10
2019-05-20T20:14:35.711Z,94.18
2019-05-20T20:17:02.973Z,94.29
2019-05-20T20:19:30.392Z,94.81
2019-05-20T20:21:57.774Z,95.20
2019-05-20T20:24:25.616Z,94.96
2019-05-20T20:26:52.613Z,95.19
2019-05-20T20:29:20.036Z,95.72
2019-05-20T20:31:47.451Z,96.03
2019-05-20T20:34:15.235Z,96.63
2019-05-20T20:36:42.431Z,96.28
2019-05-20T20:39:10.339Z,96.39
2019-05-20T20:41:37.441Z,96.66
2019-05-20T20:44:05.106Z,97.09
2019-05-20T20:46:32.431Z,96.77
2019-05-20T20:49:00.784Z,98.08
2019-05-20T20:51:27.911Z,97.58
2019-05-20T20:53:55.279Z,97.80
2019-05-20T20:56:25.447Z,98.07
2019-05-20T20:58:52.957Z,97.95
2019-05-20T21:01:20.452Z,98.21
2019-05-20T21:03:47.504Z,98.09
2019-05-20T21:06:14.789Z,97.77
2019-05-20T21:08:41.907Z,97.99
2019-05-20T21:11:09.913Z,98.26
2019-05-20T21:13:37.350Z,97.73
2019-05-20T21:16:04.400Z,97.84
2019-05-20T21:18:32.073Z,97.74
2019-05-20T21:20:59.347Z,98.07
2019-05-20T21:23:27.080Z,98.60
2019-05-20T21:25:54.933Z,99.28
2019-05-20T21:28:22.891Z,99.11
2019-05-20T21:30:50.803Z,99.29
2019-05-20T21:33:17.864Z,99.33
2019-05-20T21:35:45.666Z,98.88
2019-05-20T21:38:13.315Z,99.82
2019-05-20T21:40:40.648Z,99.46
2019-05-20T21:43:08.129Z,99.81
2019-05-20T21:45:35.171Z,100.00
2019-05-20T21:48:02.775Z,99.53
2019-05-20T21:50:29.870Z,100.00
2019-05-20T21:52:57.228Z,100.00
2019-05-20T21:55:24.720Z,100.00
2019-05-20T21:57:52.867Z,100.00
2019-05-20T22:00:27.310Z,100.00
2019-05-20T22:02:55.178Z,100.00
2019-05-20T22:05:22.271Z,100.00
2019-05-20T22:07:50.910Z,100.00
2019-05-20T22:10:18.007Z,100.00
2019-05-20T22:12:45.180Z,100.00
2019-05-20T22:15:14.313Z,100.00
2019-05-20T22:17:42.149Z,100.00
2019-05-20T22:20:10.123Z,100.00
2019-05-20T22:22:45.679Z,100.00
2019-05-20T22:25:13.125Z,100.00
2019-05-20T22:27:41.222Z,100.00
2019-05-20T22:30:09.319Z,100.00
2019-05-20T22:32:37.440Z,100.00
2019-05-20T22:35:05.027Z,100.00
2019-05-20T22:37:32.304Z,100.00
2019-05-20T22:39:59.690Z,100.00
2019-05-20T22:42:27.319Z,100.00
2019-05-20T22:44:54.771Z,100.00
2019-05-20T22:47:21.854Z,100.00
2019-05-20T22:49:49.766Z,100.00
2019-05-20T22:52:17.760Z,100.00
2019-05-20T22:54:45.303Z,100.00
2019-05-20T22:57:12.740Z,100.00
2019-05-20T22:59:40.334Z,100.00
2019-05-20T23:02:08.586Z,100.00
2019-05-20T23:04:36.115Z,100.00
2019-05-20T23:07:03.580Z,100.00
2019-05-20T23:09:31.407Z,100.00
2019-05-20T23:11:59.885Z,100.00
2019-05-20T23:14:29.969Z,100.00
2019-05-20T23:16:58.565Z,100.00
2019-05-20T23:19:26.134Z,100.00
2019-05-20T23:21:54.189Z,100.00
2019-05-20T23:24:21.655Z,100.00
2019-05-20T23:26:49.062Z,100.00
2019-05-20T23:29:16.087Z,100.00
2019-05-20T23:31:43.515Z,100.00
2019-05-20T23:34:13.214Z,100.00
2019-05-20T23:36:39.824Z,100.00
2019-05-20T23:39:07.281Z,100.00
2019-05-20T23:41:35.029Z,100.00
2019-05-20T23:44:02.724Z,100.00
2019-05-20T23:46:30.403Z,100.00
2019-05-20T23:48:58.781Z,100.00
2019-05-20T23:51:25.854Z,100.00
2019-05-20T23:53:53.564Z,100.00
2019-05-20T23:56:21.457Z,100.00
2019-05-20T23:58:49.708Z,100.00
